Skip to main content.
Our real time weather data display below is updated continuously via our 24/7 live data feed.
 TIME   TEMPERATURE   WINDSPEED   DIRECTION   HUMIDITY   BAROMETER   RAINFALL 
2:40 13.0°C (55.4°F) 7.4 kmh (4.6 mph) SSW 87% 1016.9hPa (30.03 inHg) 1.4mm (0.06 in.)
1:40 13.0°C (55.4 °F) 11.1 kmh (6.9 mph) SSW 81% 1017.9hPa (30.06 inHg) 1.4mm (0.06 in.)
12:40 13.0°C (55.4 °F) 11.1 kmh (6.9 mph) S 87% 1017.9hPa (30.06 inHg) 1.4mm (0.06 in.)
11:40 13.0°C (55.4 °F) 13.0 kmh (8.1 mph) S 81% 1019.0hPa (30.09 inHg) 1.4mm (0.06 in.)
10:40 13.0°C (55.4 °F) 11.1 kmh (6.9 mph) S 81% 1019.0hPa (30.09 inHg) 1.4mm (0.06 in.)
9:40 13.0°C (55.4 °F) 11.1 kmh (6.9 mph) S 76% 1019.0hPa (30.09 inHg) 1.4mm (0.06 in.)
8:40 13.0°C (55.4 °F) 14.8 kmh (9.2 mph) S 76% 1019.0hPa (30.09 inHg) 1.4mm (0.06 in.)
7:40 13.0°C (55.4 °F) 13.0 kmh (8.1 mph) S 76% 1019.0hPa (30.09 inHg) 1.4mm (0.06 in.)
6:40 14.0°C (57.2 °F) 13.0 kmh (8.1 mph) S 71% 1019.0hPa (30.09 inHg) 1.4mm (0.06 in.)
5:40 14.0°C (57.2 °F) 14.8 kmh (9.2 mph) SSW 71% 1019.0hPa (30.09 inHg) 1.4mm (0.06 in.)
4:40 15.0°C (59.0 °F) 13.0 kmh (8.1 mph) SSW 62% 1019.0hPa (30.09 inHg) 1.4mm (0.06 in.)
3:40 15.0°C (59.0 °F) 16.7 kmh (10.4 mph) SSW 62% 1019.0hPa (30.09 inHg) 1.4mm (0.06 in.)
2:40 15.0°C (59.0 °F) 14.8 kmh (9.2 mph) SW 76% 1019.0hPa (30.09 inHg) 1.4mm (0.06 in.)
1:40 15.0°C (59.0 °F) 13.0 kmh (8.1 mph) S 82% 1020.0hPa (30.12 inHg) 1.4mm (0.06 in.)
12:40 15.0°C (59.0 °F) 18.5 kmh (11.5 mph) S 82% 1020.0hPa (30.12 inHg) 1.0mm (0.04 in.)
11:40 14.0°C (57.2 °F) 16.7 kmh (10.4 mph) S 87% 1021.0hPa (30.15 inHg) 1.0mm (0.04 in.)
10:40 13.0°C (55.4 °F) 11.1 kmh (6.9 mph) S 93% 1022.0hPa (30.18 inHg) 1.0mm (0.04 in.)
9:40 13.0°C (55.4 °F) 14.8 kmh (9.2 mph) S 93% 1021.0hPa (30.15 inHg) 1.0mm (0.04 in.)
8:40 12.0°C (53.6 °F) 18.5 kmh (11.5 mph) SSE 93% 1021.0hPa (30.15 inHg) 0.8mm (0.03 in.)
7:40 13.0°C (55.4 °F) 16.7 kmh (10.4 mph) S 87% 1021.0hPa (30.15 inHg) 0.0mm (0.00 in.)
6:40 13.0°C (55.4 °F) 16.7 kmh (10.4 mph) SSE 76% 1021.0hPa (30.15 inHg) 0.0mm (0.00 in.)
5:40 13.0°C (55.4 °F) 16.7 kmh (10.4 mph) SSE 76% 1021.0hPa (30.15 inHg) 0.0mm (0.00 in.)
4:40 12.0°C (53.6 °F) 14.8 kmh (9.2 mph) SSE 81% 1022.0hPa (30.18 inHg) 0.0mm (0.00 in.)
3:40 12.0°C (53.6 °F) 13.0 kmh (8.1 mph) SSE 81% 1022.0hPa (30.18 inHg) 0.0mm (0.00 in.)